Time;durP1;ratioP1;P1;durP2;ratioP2;P2;SDS_P1;SDS_P2;PMS_P1;PMS_P2;Temp;Humidity;BMP_temperature;BMP_pressure;BME280_temperature;BME280_humidity;BME280_pressure;Samples;Min_cycle;Max_cycle;Signal;HPM_P1;HPM_P2
2023/05/30 00:02:03;;;;;;;3.00;1.97;;;16.30;85.00;;;;;;5094551;28;20443;-86
2023/05/30 00:04:30;;;;;;;1.53;1.43;;;16.30;84.70;;;;;;5094271;28;20452;-86
2023/05/30 00:06:57;;;;;;;4.10;2.60;;;16.20;84.90;;;;;;5094491;28;20458;-86
2023/05/30 00:09:25;;;;;;;2.90;1.80;;;16.20;84.90;;;;;;5094436;28;20459;-86
2023/05/30 00:11:56;;;;;;;1.97;1.57;;;16.20;85.40;;;;;;5094384;28;20875;-86
2023/05/30 00:14:23;;;;;;;3.13;1.50;;;16.10;86.00;;;;;;5094260;28;20806;-86
2023/05/30 00:16:51;;;;;;;3.93;1.90;;;16.10;85.00;;;;;;5094259;28;20853;-86
2023/05/30 00:19:19;;;;;;;1.60;1.33;;;16.10;86.00;;;;;;5094122;28;20452;-86
2023/05/30 00:21:47;;;;;;;2.23;1.60;;;16.10;86.40;;;;;;5093991;28;20971;-86
2023/05/30 00:24:13;;;;;;;2.60;1.30;;;16.00;86.90;;;;;;5094109;28;20483;-86
2023/05/30 00:26:42;;;;;;;2.97;1.43;;;16.00;87.10;;;;;;5093963;28;20511;-86
2023/05/30 00:29:08;;;;;;;3.87;1.70;;;15.90;87.00;;;;;;5094070;28;20471;-86
2023/05/30 00:31:35;;;;;;;1.50;1.40;;;15.90;87.80;;;;;;5098270;28;20542;-86
2023/05/30 00:34:02;;;;;;;1.30;1.20;;;15.80;88.10;;;;;;5094889;28;20456;-86
2023/05/30 00:36:28;;;;;;;2.90;1.57;;;15.80;88.50;;;;;;5094221;28;20498;-86
2023/05/30 00:38:55;;;;;;;1.93;0.97;;;15.80;90.00;;;;;;5094467;28;20440;-85
2023/05/30 00:41:22;;;;;;;3.33;1.67;;;15.70;89.50;;;;;;5094088;28;20444;-86
2023/05/30 00:43:50;;;;;;;2.27;2.07;;;15.70;90.20;;;;;;5094258;28;20455;-86
2023/05/30 00:46:18;;;;;;;1.80;1.70;;;15.60;90.00;;;;;;5094026;28;20468;-86
2023/05/30 00:48:46;;;;;;;2.80;1.53;;;15.60;90.00;;;;;;5093946;28;20456;-86
2023/05/30 00:51:12;;;;;;;2.07;1.43;;;15.60;88.80;;;;;;5093892;28;20451;-87
2023/05/30 00:53:42;;;;;;;1.33;1.20;;;15.60;88.40;;;;;;5094126;28;20440;-86
2023/05/30 00:56:10;;;;;;;2.63;1.70;;;15.60;89.80;;;;;;5093611;28;20464;-85
2023/05/30 00:58:38;;;;;;;2.30;1.37;;;15.60;90.20;;;;;;5093923;28;20569;-86
2023/05/30 01:01:07;;;;;;;1.27;1.17;;;15.60;90.10;;;;;;5093788;28;20521;-86
2023/05/30 01:03:34;;;;;;;5.43;1.50;;;15.60;90.60;;;;;;5095828;28;20455;-86
2023/05/30 01:06:03;;;;;;;3.20;2.37;;;15.70;89.40;;;;;;5098068;28;20468;-86
2023/05/30 01:08:30;;;;;;;2.37;1.70;;;15.70;90.00;;;;;;5098017;28;20451;-86
2023/05/30 01:11:07;;;;;;;2.47;1.77;;;15.70;89.50;;;;;;5098020;28;20805;-86
2023/05/30 01:13:41;;;;;;;4.40;2.23;;;15.70;90.10;;;;;;5098424;28;20471;-87
2023/05/30 01:16:15;;;;;;;2.80;1.10;;;15.70;90.10;;;;;;5097548;28;20448;-86
2023/05/30 01:18:52;;;;;;;2.50;1.50;;;15.70;89.20;;;;;;5097794;28;20409;-87
2023/05/30 01:21:22;;;;;;;2.23;2.03;;;15.70;89.50;;;;;;5097332;28;20999;-86
2023/05/30 01:24:00;;;;;;;2.70;1.77;;;15.70;90.20;;;;;;5098591;28;20792;-87
2023/05/30 01:26:43;;;;;;;3.30;1.63;;;15.70;89.50;;;;;;5097747;28;20439;-86
2023/05/30 01:29:17;;;;;;;4.33;1.60;;;15.70;89.20;;;;;;5097563;28;20485;-86
2023/05/30 01:31:46;;;;;;;2.03;1.43;;;15.80;89.10;;;;;;5097843;28;20442;-87
2023/05/30 01:34:14;;;;;;;1.70;1.53;;;15.80;89.30;;;;;;5097359;28;20448;-87
2023/05/30 01:36:41;;;;;;;1.10;0.90;;;15.80;89.20;;;;;;5097368;28;20479;-87
2023/05/30 01:39:09;;;;;;;3.47;1.50;;;15.80;89.20;;;;;;5097227;28;20439;-87
2023/05/30 01:41:45;;;;;;;1.50;1.00;;;15.70;89.90;;;;;;5097186;28;20440;-87
2023/05/30 01:44:21;;;;;;;1.50;1.40;;;15.70;89.90;;;;;;5097564;28;20510;-87
2023/05/30 01:46:59;;;;;;;1.17;1.10;;;15.70;89.90;;;;;;5097384;28;20432;-87
2023/05/30 01:49:34;;;;;;;1.77;1.33;;;15.70;90.20;;;;;;5097466;28;20442;-87
2023/05/30 01:52:03;;;;;;;2.70;1.40;;;15.70;89.90;;;;;;5097492;28;20427;-87
2023/05/30 01:54:33;;;;;;;2.63;1.57;;;15.70;90.10;;;;;;5097179;28;20463;-87
2023/05/30 01:57:06;;;;;;;3.67;2.03;;;15.60;90.60;;;;;;5097126;28;20472;-87
2023/05/30 01:59:35;;;;;;;2.67;1.37;;;15.60;90.70;;;;;;5097260;28;20432;-87
2023/05/30 02:02:03;;;;;;;1.63;1.47;;;15.60;90.40;;;;;;5096774;28;20440;-86
2023/05/30 02:04:31;;;;;;;2.40;1.33;;;15.60;90.50;;;;;;5097007;28;20471;-87
2023/05/30 02:06:58;;;;;;;2.77;2.00;;;15.60;90.40;;;;;;5096795;28;20454;-87
2023/05/30 02:09:26;;;;;;;2.03;1.60;;;15.60;90.50;;;;;;5096580;28;20436;-87
2023/05/30 02:11:53;;;;;;;2.23;1.63;;;15.60;90.60;;;;;;5097023;28;20450;-87
2023/05/30 02:14:19;;;;;;;2.20;1.07;;;15.50;90.90;;;;;;5096432;28;20459;-87
2023/05/30 02:16:47;;;;;;;2.70;1.70;;;15.50;90.80;;;;;;5096669;28;20440;-87
2023/05/30 02:19:14;;;;;;;2.77;1.50;;;15.50;90.80;;;;;;5096484;28;20957;-87
2023/05/30 02:21:42;;;;;;;1.77;1.30;;;15.50;90.90;;;;;;5096478;28;20471;-86
2023/05/30 02:24:08;;;;;;;4.93;1.27;;;15.50;91.00;;;;;;5096185;28;20819;-86
2023/05/30 02:26:36;;;;;;;6.90;1.90;;;15.40;91.20;;;;;;5096215;28;20447;-86
2023/05/30 02:29:03;;;;;;;1.60;1.50;;;15.30;91.50;;;;;;5096035;28;20939;-86
2023/05/30 02:31:30;;;;;;;3.33;1.80;;;15.30;91.80;;;;;;5096185;28;20822;-86
2023/05/30 02:33:58;;;;;;;2.47;1.50;;;15.30;92.50;;;;;;5095943;28;20432;-85
2023/05/30 02:36:25;;;;;;;2.47;1.40;;;15.20;92.90;;;;;;5095777;28;20443;-86
2023/05/30 02:38:51;;;;;;;1.63;1.53;;;15.20;92.90;;;;;;5096052;28;20484;-86
2023/05/30 02:41:18;;;;;;;2.53;1.57;;;15.10;92.80;;;;;;5095916;28;20518;-86
2023/05/30 02:43:45;;;;;;;2.53;1.60;;;15.10;92.80;;;;;;5095995;28;20818;-86
2023/05/30 02:46:11;;;;;;;2.30;1.57;;;15.10;93.20;;;;;;5095958;28;20459;-86
2023/05/30 02:48:38;;;;;;;2.87;2.03;;;15.10;93.00;;;;;;5095940;28;20448;-85
2023/05/30 02:51:06;;;;;;;1.83;1.53;;;15.00;93.50;;;;;;5095688;28;20954;-85
2023/05/30 02:53:33;;;;;;;1.37;1.30;;;15.00;94.20;;;;;;5095418;28;20440;-85
2023/05/30 02:56:00;;;;;;;1.53;1.43;;;15.00;94.50;;;;;;5095298;28;20978;-85
2023/05/30 02:58:26;;;;;;;1.20;1.00;;;14.90;94.80;;;;;;5095523;28;20476;-85
2023/05/30 03:00:53;;;;;;;3.03;1.40;;;14.90;95.00;;;;;;5095671;28;20444;-85
2023/05/30 03:03:22;;;;;;;1.63;1.57;;;14.80;95.20;;;;;;5095553;28;20444;-85
2023/05/30 03:05:49;;;;;;;1.40;1.30;;;14.80;95.70;;;;;;5095478;28;20468;-85
2023/05/30 03:08:17;;;;;;;4.77;2.07;;;14.70;95.90;;;;;;5095440;28;20505;-85
2023/05/30 03:10:44;;;;;;;1.90;1.33;;;14.70;96.40;;;;;;5095369;28;20886;-85
2023/05/30 03:13:10;;;;;;;4.53;2.03;;;14.60;96.60;;;;;;5095323;28;20828;-85
2023/05/30 03:15:39;;;;;;;4.93;1.10;;;14.60;96.80;;;;;;5095197;28;20467;-85
2023/05/30 03:18:05;;;;;;;2.70;2.10;;;14.60;97.10;;;;;;5095207;28;20570;-84
2023/05/30 03:20:32;;;;;;;4.27;1.57;;;14.60;97.10;;;;;;5094994;28;20479;-85
2023/05/30 03:22:59;;;;;;;1.67;1.57;;;14.50;97.70;;;;;;5095143;28;20454;-84
2023/05/30 03:25:27;;;;;;;5.23;1.50;;;14.40;98.40;;;;;;5094264;28;21005;-85
2023/05/30 03:27:54;;;;;;;5.60;1.77;;;14.40;98.60;;;;;;5095070;28;20440;-85
2023/05/30 03:30:25;;;;;;;3.40;1.60;;;14.40;98.90;;;;;;5095117;28;20456;-85
2023/05/30 03:32:52;;;;;;;1.63;1.53;;;14.30;99.50;;;;;;5095005;28;20436;-85
2023/05/30 03:35:19;;;;;;;2.60;1.10;;;14.20;99.90;;;;;;5094618;28;20472;-85
2023/05/30 03:37:46;;;;;;;2.00;1.53;;;14.20;99.90;;;;;;5097920;28;21017;-85
2023/05/30 03:40:13;;;;;;;1.50;1.40;;;14.30;99.90;;;;;;5095683;28;20443;-85
2023/05/30 03:42:41;;;;;;;3.00;1.43;;;14.20;99.90;;;;;;5095257;28;20448;-85
2023/05/30 03:45:08;;;;;;;1.57;1.40;;;14.20;99.90;;;;;;5095350;28;20468;-84
2023/05/30 03:47:35;;;;;;;2.03;1.83;;;14.20;99.90;;;;;;5094763;28;20453;-85
2023/05/30 03:50:02;;;;;;;3.80;2.10;;;14.20;99.90;;;;;;5094758;28;20448;-85
2023/05/30 03:52:29;;;;;;;2.00;1.57;;;14.10;99.90;;;;;;5094656;28;20444;-85
2023/05/30 03:54:56;;;;;;;4.27;2.20;;;14.10;99.90;;;;;;5095370;28;20507;-85
2023/05/30 03:57:23;;;;;;;2.20;1.30;;;14.10;99.90;;;;;;5094537;28;20483;-85
2023/05/30 03:59:51;;;;;;;2.83;2.10;;;14.10;99.90;;;;;;5094640;28;20451;-85
2023/05/30 04:02:18;;;;;;;5.30;2.30;;;14.10;99.90;;;;;;5094677;28;20473;-85
2023/05/30 04:04:45;;;;;;;4.03;1.93;;;14.20;99.90;;;;;;5094084;28;20975;-85
2023/05/30 04:07:12;;;;;;;3.90;1.80;;;14.10;99.90;;;;;;5094316;28;20819;-85
2023/05/30 04:09:38;;;;;;;3.43;2.30;;;14.10;99.90;;;;;;5093950;28;20932;-85
2023/05/30 04:12:06;;;;;;;5.33;1.47;;;14.20;99.90;;;;;;5094451;28;20451;-85
2023/05/30 04:14:33;;;;;;;2.40;1.93;;;14.20;99.90;;;;;;5094443;28;20479;-85
2023/05/30 04:17:01;;;;;;;1.93;1.70;;;14.20;99.90;;;;;;5094805;28;20447;-85
2023/05/30 04:19:28;;;;;;;4.00;1.53;;;14.20;99.90;;;;;;5094226;28;20494;-86
2023/05/30 04:21:54;;;;;;;2.00;1.43;;;14.20;99.90;;;;;;5094073;28;20462;-85
2023/05/30 04:24:21;;;;;;;1.57;1.47;;;14.30;99.90;;;;;;5093788;28;20448;-85
2023/05/30 04:26:49;;;;;;;5.77;1.77;;;14.30;99.90;;;;;;5094037;28;20444;-85
2023/05/30 04:29:15;;;;;;;2.67;1.10;;;14.40;99.90;;;;;;5093636;28;20440;-86
2023/05/30 04:31:43;;;;;;;1.90;1.73;;;14.40;99.90;;;;;;5093814;28;20429;-85
2023/05/30 04:34:12;;;;;;;5.80;2.33;;;14.40;99.90;;;;;;5093861;28;20505;-86
2023/05/30 04:36:40;;;;;;;3.17;1.67;;;14.50;99.90;;;;;;5093578;28;20444;-86
2023/05/30 04:39:07;;;;;;;2.50;1.53;;;14.50;99.90;;;;;;5093269;28;20571;-85
2023/05/30 04:41:35;;;;;;;2.17;1.50;;;14.50;99.90;;;;;;5093779;28;20483;-86
2023/05/30 04:44:03;;;;;;;2.00;1.47;;;14.60;99.90;;;;;;5093710;28;20547;-85
2023/05/30 04:46:30;;;;;;;1.37;1.27;;;14.60;99.90;;;;;;5093889;28;20448;-86
2023/05/30 04:49:00;;;;;;;2.00;1.50;;;14.60;99.90;;;;;;5093889;28;20442;-86
2023/05/30 04:51:29;;;;;;;1.70;1.50;;;14.70;99.90;;;;;;5093490;28;20966;-86
2023/05/30 04:53:56;;;;;;;1.50;1.40;;;14.70;99.90;;;;;;5093695;28;20448;-86
2023/05/30 04:56:22;;;;;;;2.10;1.60;;;14.80;99.90;;;;;;5094053;28;20493;-85
2023/05/30 04:58:51;;;;;;;6.60;1.50;;;14.90;99.90;;;;;;5093874;28;20475;-86
2023/05/30 05:01:18;;;;;;;1.93;1.20;;;14.90;99.90;;;;;;5093896;28;20810;-86
2023/05/30 05:03:45;;;;;;;3.00;1.97;;;15.00;99.90;;;;;;5093641;28;20497;-86
2023/05/30 05:06:13;;;;;;;2.20;2.00;;;15.00;99.90;;;;;;5093567;28;20468;-86
2023/05/30 05:08:41;;;;;;;4.37;2.10;;;15.10;99.90;;;;;;5093318;28;20535;-86
2023/05/30 05:11:08;;;;;;;3.27;2.17;;;15.20;99.90;;;;;;5093967;28;20439;-86
2023/05/30 05:13:36;;;;;;;2.67;1.87;;;15.20;99.90;;;;;;5093240;28;20458;-85
2023/05/30 05:16:04;;;;;;;2.70;1.67;;;15.30;99.90;;;;;;5093497;28;20545;-86
2023/05/30 05:18:31;;;;;;;3.67;1.97;;;15.40;99.90;;;;;;5093620;28;20480;-87
2023/05/30 05:20:58;;;;;;;5.33;1.93;;;15.50;99.90;;;;;;5093236;28;20476;-86
2023/05/30 05:23:27;;;;;;;2.20;1.67;;;15.50;99.90;;;;;;5093540;28;20466;-86
2023/05/30 05:25:55;;;;;;;2.90;1.80;;;15.60;99.90;;;;;;5093662;28;20456;-86
2023/05/30 05:28:22;;;;;;;4.47;2.30;;;15.60;99.90;;;;;;5093546;28;20452;-86
2023/05/30 05:30:49;;;;;;;3.90;1.70;;;15.70;99.90;;;;;;5093161;28;20939;-86
2023/05/30 05:33:16;;;;;;;1.67;1.20;;;15.80;99.90;;;;;;5093427;28;20935;-86
2023/05/30 05:35:45;;;;;;;2.17;1.73;;;15.90;99.90;;;;;;5093187;28;20452;-86
2023/05/30 05:38:12;;;;;;;2.77;1.60;;;16.00;99.90;;;;;;5093385;28;20506;-86
2023/05/30 05:40:39;;;;;;;2.60;2.07;;;16.10;99.90;;;;;;5093299;28;20456;-86
2023/05/30 05:43:07;;;;;;;2.47;2.27;;;16.20;99.90;;;;;;5093435;28;20448;-86
2023/05/30 05:45:34;;;;;;;2.07;1.90;;;16.30;99.90;;;;;;5093255;28;20830;-87
2023/05/30 05:48:01;;;;;;;10.27;1.80;;;16.40;99.90;;;;;;5093616;28;20447;-88
2023/05/30 05:50:28;;;;;;;3.80;2.00;;;16.50;99.90;;;;;;5097099;28;20547;-87
2023/05/30 05:52:55;;;;;;;1.70;1.60;;;16.70;99.90;;;;;;5097511;28;20450;-87
2023/05/30 05:55:21;;;;;;;1.97;1.60;;;16.70;99.90;;;;;;5097121;28;20829;-87
2023/05/30 05:57:48;;;;;;;4.07;2.03;;;16.80;99.90;;;;;;5097004;28;20462;-86
2023/05/30 06:00:17;;;;;;;2.70;2.00;;;16.90;99.90;;;;;;5097370;28;20447;-87
2023/05/30 06:02:44;;;;;;;5.37;1.87;;;17.00;99.90;;;;;;5096598;28;20974;-87
2023/05/30 06:05:10;;;;;;;1.97;1.50;;;17.10;99.90;;;;;;5097294;28;20474;-87
2023/05/30 06:07:37;;;;;;;1.90;1.63;;;17.20;99.90;;;;;;5096526;28;20962;-87
2023/05/30 06:10:04;;;;;;;4.60;1.63;;;17.20;99.90;;;;;;5097277;28;20439;-87
2023/05/30 06:12:31;;;;;;;1.60;1.50;;;17.20;99.90;;;;;;5096823;28;20452;-87
2023/05/30 06:14:58;;;;;;;2.10;1.90;;;17.30;99.90;;;;;;5096812;28;20471;-87
2023/05/30 06:17:26;;;;;;;1.63;1.43;;;17.50;99.90;;;;;;5096460;28;20947;-87
2023/05/30 06:19:53;;;;;;;4.90;1.73;;;17.50;99.90;;;;;;5096206;28;20498;-87
2023/05/30 06:22:19;;;;;;;3.93;1.87;;;17.60;99.90;;;;;;5096731;28;20489;-87
2023/05/30 06:24:46;;;;;;;1.73;1.57;;;17.70;99.90;;;;;;5096610;28;20468;-86
2023/05/30 06:27:13;;;;;;;3.37;1.97;;;17.80;99.90;;;;;;5096447;28;20439;-88
2023/05/30 06:29:40;;;;;;;4.30;1.63;;;17.80;99.90;;;;;;5096368;28;20448;-87
2023/05/30 06:32:08;;;;;;;2.30;1.60;;;18.00;99.90;;;;;;5096700;28;20448;-87
2023/05/30 06:34:36;;;;;;;2.80;1.37;;;18.10;99.90;;;;;;5096706;28;20947;-88
2023/05/30 06:37:04;;;;;;;3.63;1.67;;;18.20;99.90;;;;;;5096680;28;20526;-87
2023/05/30 06:39:31;;;;;;;1.70;1.30;;;18.40;99.90;;;;;;5096362;28;20483;-87
2023/05/30 06:41:58;;;;;;;3.83;1.90;;;18.50;99.90;;;;;;5103318;28;20451;-87
2023/05/30 06:44:24;;;;;;;1.80;1.47;;;18.70;99.90;;;;;;5098696;28;20464;-88
2023/05/30 06:46:52;;;;;;;2.97;1.80;;;18.90;99.90;;;;;;5098171;28;20444;-87
2023/05/30 06:49:19;;;;;;;3.73;2.00;;;19.00;99.90;;;;;;5096947;28;20447;-87
2023/05/30 06:51:47;;;;;;;1.43;1.33;;;19.10;99.90;;;;;;5097207;28;20440;-88
2023/05/30 06:54:14;;;;;;;2.10;1.90;;;19.30;99.90;;;;;;5096380;28;20458;-88
2023/05/30 06:56:40;;;;;;;1.47;1.37;;;19.40;99.90;;;;;;5096517;28;20455;-88
2023/05/30 06:59:07;;;;;;;5.07;1.60;;;19.50;99.90;;;;;;5096442;28;20475;-88
2023/05/30 07:01:34;;;;;;;4.50;1.50;;;19.50;99.90;;;;;;5095401;28;20432;-89
2023/05/30 07:04:00;;;;;;;2.40;1.60;;;19.70;99.90;;;;;;5096368;28;20454;-88
2023/05/30 07:06:27;;;;;;;1.50;1.40;;;19.80;99.10;;;;;;5096282;28;20787;-88
2023/05/30 07:08:55;;;;;;;2.03;1.37;;;19.80;98.20;;;;;;5096812;28;20412;-88
2023/05/30 07:11:22;;;;;;;3.07;2.37;;;19.80;98.50;;;;;;5096437;28;20447;-88
2023/05/30 07:13:49;;;;;;;1.60;1.30;;;19.70;99.20;;;;;;5096120;28;20455;-88
2023/05/30 07:16:16;;;;;;;3.20;2.10;;;19.80;98.60;;;;;;5095983;28;20472;-86
2023/05/30 07:18:43;;;;;;;3.07;1.60;;;19.90;98.40;;;;;;5095769;28;20479;-88
2023/05/30 07:21:10;;;;;;;1.83;1.43;;;19.90;99.00;;;;;;5095571;28;20479;-88
2023/05/30 07:23:36;;;;;;;1.60;1.50;;;20.10;98.60;;;;;;5096194;28;20479;-89
2023/05/30 07:26:05;;;;;;;4.30;1.87;;;20.20;97.80;;;;;;5095867;28;20475;-88
2023/05/30 07:28:31;;;;;;;2.43;1.37;;;20.30;98.50;;;;;;5096042;28;20455;-89
2023/05/30 07:30:58;;;;;;;1.90;1.70;;;20.40;98.20;;;;;;5095730;28;20423;-87
2023/05/30 07:33:25;;;;;;;4.13;2.30;;;20.30;97.70;;;;;;5096099;28;20448;-87
2023/05/30 07:35:51;;;;;;;2.93;2.10;;;20.30;97.00;;;;;;5095761;28;20467;-90
2023/05/30 07:38:18;;;;;;;1.70;1.60;;;20.40;97.00;;;;;;5095849;28;20931;-89
2023/05/30 07:40:45;;;;;;;1.33;1.17;;;20.70;96.70;;;;;;5096348;28;20447;-89
2023/05/30 07:43:13;;;;;;;3.23;1.33;;;20.90;96.20;;;;;;5095703;28;20451;-89
2023/05/30 07:45:40;;;;;;;1.37;1.27;;;21.00;96.10;;;;;;5095271;28;20451;-90
2023/05/30 07:48:07;;;;;;;2.57;2.37;;;21.30;96.50;;;;;;5095715;28;20443;-89
2023/05/30 07:50:33;;;;;;;4.30;1.93;;;22.00;95.70;;;;;;5101895;28;20513;-89
2023/05/30 07:53:00;;;;;;;1.53;1.37;;;22.70;94.10;;;;;;5100916;28;20208;-89
2023/05/30 07:55:27;;;;;;;3.90;1.73;;;23.30;92.80;;;;;;5099447;28;20235;-90
2023/05/30 07:57:54;;;;;;;1.83;1.30;;;24.00;92.10;;;;;;5099237;28;20661;-89
2023/05/30 08:00:23;;;;;;;2.28;2.08;;;24.70;90.20;;;;;;5099298;28;20213;-89
2023/05/30 08:02:50;;;;;;;2.65;1.73;;;25.20;89.50;;;;;;5099238;28;20233;-89
2023/05/30 08:05:17;;;;;;;1.92;1.50;;;25.60;87.30;;;;;;5100069;28;20739;-90
2023/05/30 08:07:43;;;;;;;1.30;1.20;;;25.60;84.10;;;;;;5097818;28;20696;-88
2023/05/30 08:10:10;;;;;;;1.50;1.40;;;25.20;82.10;;;;;;5096944;28;20198;-85
2023/05/30 08:12:38;;;;;;;1.75;1.20;;;25.00;85.70;;;;;;5094702;28;20312;-85
2023/05/30 08:15:07;;;;;;;2.35;1.40;;;24.90;85.80;;;;;;5096818;28;20232;-88
2023/05/30 08:17:35;;;;;;;1.27;1.17;;;24.90;86.00;;;;;;5097302;28;20198;-88
2023/05/30 08:20:03;;;;;;;1.67;1.58;;;24.90;84.50;;;;;;5096193;28;20240;-88
2023/05/30 08:22:31;;;;;;;1.55;1.45;;;25.10;81.80;;;;;;5096314;28;20205;-88
2023/05/30 08:25:00;;;;;;;3.72;1.38;;;25.40;84.10;;;;;;5096367;28;20753;-89
2023/05/30 08:27:27;;;;;;;4.30;2.05;;;25.70;82.60;;;;;;5097487;28;20212;-88
2023/05/30 08:29:55;;;;;;;1.30;1.20;;;26.00;77.40;;;;;;5097616;28;20206;-88
2023/05/30 08:32:22;;;;;;;1.40;0.93;;;26.00;76.80;;;;;;5098037;28;20203;-87
2023/05/30 08:34:50;;;;;;;1.45;1.35;;;26.00;75.40;;;;;;5097193;28;20704;-86
2023/05/30 08:37:18;;;;;;;1.95;1.15;;;25.90;75.80;;;;;;5097533;28;20201;-88
2023/05/30 08:39:45;;;;;;;1.80;1.00;;;25.80;75.30;;;;;;5097859;28;20708;-89
2023/05/30 08:42:12;;;;;;;1.60;1.50;;;25.40;77.10;;;;;;5097430;28;20201;-86
2023/05/30 08:44:39;;;;;;;1.65;1.52;;;25.10;77.30;;;;;;5098812;28;20244;-90
2023/05/30 08:47:12;;;;;;;4.97;1.70;;;24.80;76.80;;;;;;5099867;28;20207;-90
2023/05/30 08:49:42;;;;;;;2.25;2.15;;;24.50;76.80;;;;;;5100046;28;20197;-90
2023/05/30 08:52:13;;;;;;;2.80;1.63;;;24.10;77.00;;;;;;5100496;28;20303;-90
2023/05/30 08:54:45;;;;;;;9.73;1.40;;;23.70;79.10;;;;;;5099838;28;20221;-91
2023/05/30 08:57:18;;;;;;;2.92;1.90;;;23.60;81.00;;;;;;5100411;28;20186;-88
2023/05/30 08:59:46;;;;;;;5.90;1.67;;;23.60;82.00;;;;;;5099319;28;20209;-91
2023/05/30 09:02:14;;;;;;;2.13;1.38;;;24.00;80.80;;;;;;5099179;28;20213;-88
2023/05/30 09:04:42;;;;;;;2.67;1.65;;;24.60;79.40;;;;;;5100362;28;20229;-89
2023/05/30 09:07:12;;;;;;;1.95;1.58;;;25.20;76.10;;;;;;5099453;28;20208;-91
2023/05/30 09:09:41;;;;;;;1.70;1.60;;;25.60;75.40;;;;;;5099718;28;20193;-91
2023/05/30 09:12:09;;;;;;;1.42;1.02;;;25.60;74.90;;;;;;5098131;28;20205;-90
2023/05/30 09:14:36;;;;;;;7.07;2.17;;;25.20;77.00;;;;;;5099109;28;20213;-90
2023/05/30 09:17:03;;;;;;;2.08;1.65;;;24.90;76.00;;;;;;5100910;28;20201;-91
2023/05/30 09:19:29;;;;;;;2.97;1.95;;;24.40;74.90;;;;;;5100066;28;20315;-89
2023/05/30 09:21:57;;;;;;;2.70;1.95;;;24.00;77.30;;;;;;5100606;28;20196;-89
2023/05/30 09:24:54;;;;;;;1.98;1.10;;;23.70;78.70;;;;;;5102567;28;20248;-91
2023/05/30 09:27:22;;;;;;;1.67;1.27;;;23.50;81.40;;;;;;5104864;28;20250;-89
2023/05/30 09:29:49;;;;;;;2.43;1.40;;;23.40;78.40;;;;;;5105089;28;20260;-91
2023/05/30 09:32:15;;;;;;;4.97;1.40;;;23.30;78.70;;;;;;5104371;28;20201;-91
2023/05/30 09:34:54;;;;;;;1.87;1.33;;;23.20;77.60;;;;;;5104706;28;20225;-90
2023/05/30 09:37:20;;;;;;;6.63;1.90;;;23.00;79.60;;;;;;5103270;28;20695;-91
2023/05/30 09:40:06;;;;;;;2.20;1.70;;;23.00;79.50;;;;;;5105667;28;20293;-90
2023/05/30 09:42:39;;;;;;;3.77;2.00;;;23.10;80.30;;;;;;5111090;28;20201;-90
2023/05/30 09:45:08;;;;;;;1.50;1.40;;;23.20;79.40;;;;;;5107531;28;20227;-91
2023/05/30 09:47:41;;;;;;;3.43;1.50;;;23.20;79.50;;;;;;5106480;28;20239;-92
2023/05/30 09:50:09;;;;;;;3.30;1.50;;;23.20;78.50;;;;;;5101350;28;20221;-84
2023/05/30 09:52:37;;;;;;;2.50;1.70;;;23.20;78.60;;;;;;5098086;28;20197;-84
2023/05/30 09:55:06;;;;;;;5.80;1.63;;;23.20;77.80;;;;;;5098275;28;20228;-85
2023/05/30 09:57:37;;;;;;;2.70;1.40;;;23.20;77.40;;;;;;5098178;28;20756;-88
2023/05/30 10:00:11;;;;;;;1.80;1.70;;;23.10;78.50;;;;;;5097522;28;20216;-86
2023/05/30 10:02:40;;;;;;;1.93;1.37;;;23.10;79.30;;;;;;5097321;28;20200;-84
2023/05/30 10:05:17;;;;;;;1.33;1.23;;;23.00;79.80;;;;;;5100038;28;20247;-88
2023/05/30 10:07:44;;;;;;;2.40;1.70;;;23.10;79.30;;;;;;5102828;28;20185;-88
2023/05/30 10:10:13;;;;;;;2.07;1.43;;;23.30;78.60;;;;;;5103548;28;20289;-90
2023/05/30 10:12:41;;;;;;;2.40;1.43;;;23.20;78.20;;;;;;5103906;28;20325;-89
2023/05/30 10:15:10;;;;;;;3.97;1.73;;;23.20;77.80;;;;;;5103123;28;20471;-89
2023/05/30 10:17:40;;;;;;;1.50;1.40;;;23.10;79.70;;;;;;5103607;28;20237;-90
2023/05/30 10:20:10;;;;;;;1.87;1.30;;;23.10;77.20;;;;;;5102514;28;20248;-87
2023/05/30 10:22:43;;;;;;;4.00;1.47;;;23.20;78.30;;;;;;5103533;28;20228;-91
2023/05/30 10:25:13;;;;;;;1.67;1.57;;;23.30;78.30;;;;;;5104810;28;20232;-89
2023/05/30 10:27:44;;;;;;;2.40;1.80;;;23.40;75.80;;;;;;5101669;28;20657;-88
2023/05/30 10:30:15;;;;;;;2.57;1.73;;;23.30;75.70;;;;;;5100975;28;20207;-87
2023/05/30 10:32:44;;;;;;;1.90;1.40;;;23.20;75.50;;;;;;5101871;28;20186;-89
2023/05/30 10:35:14;;;;;;;1.87;1.77;;;23.10;75.80;;;;;;5099458;28;20474;-86
2023/05/30 10:37:42;;;;;;;2.40;1.27;;;23.10;79.30;;;;;;5100110;28;20213;-87
2023/05/30 10:40:24;;;;;;;3.10;1.53;;;23.10;76.60;;;;;;5102467;28;21025;-88
2023/05/30 10:43:07;;;;;;;4.30;1.63;;;23.20;75.60;;;;;;5100160;28;20190;-86
2023/05/30 10:45:43;;;;;;;2.30;2.10;;;23.20;75.90;;;;;;5100100;28;20592;-86
2023/05/30 10:48:19;;;;;;;1.60;1.50;;;23.20;75.80;;;;;;5097529;28;20427;-85
2023/05/30 10:50:50;;;;;;;2.60;2.10;;;23.30;75.70;;;;;;5098723;28;20557;-84
2023/05/30 10:53:17;;;;;;;2.83;1.77;;;23.20;75.60;;;;;;5097727;28;20641;-85
2023/05/30 10:55:47;;;;;;;3.37;1.40;;;23.20;75.00;;;;;;5098400;28;20474;-87
2023/05/30 10:58:37;;;;;;;1.67;1.47;;;23.30;74.80;;;;;;5099634;28;20181;-87
2023/05/30 11:01:24;;;;;;;1.77;1.10;;;23.40;75.30;;;;;;5098367;28;20894;-87
2023/05/30 11:04:01;;;;;;;1.20;1.00;;;23.80;75.30;;;;;;5099332;28;20629;-88
2023/05/30 11:06:31;;;;;;;3.73;1.40;;;24.10;71.80;;;;;;5098057;28;20189;-86
2023/05/30 11:09:05;;;;;;;2.83;1.40;;;24.20;73.10;;;;;;5099821;28;20212;-87
2023/05/30 11:11:40;;;;;;;2.00;1.33;;;24.00;70.40;;;;;;5099808;28;20188;-89
2023/05/30 11:14:07;;;;;;;2.07;1.70;;;23.70;70.20;;;;;;5098279;28;20219;-88
2023/05/30 11:16:47;;;;;;;3.23;1.57;;;23.50;71.70;;;;;;5099561;28;20205;-90
2023/05/30 11:19:14;;;;;;;1.90;1.60;;;23.30;72.40;;;;;;5100231;28;20194;-88
2023/05/30 11:22:00;;;;;;;2.57;1.80;;;23.20;72.80;;;;;;5097688;28;20221;-86
2023/05/30 11:24:28;;;;;;;7.83;1.47;;;23.10;73.00;;;;;;5098813;28;20467;-84
2023/05/30 11:27:09;;;;;;;1.50;1.40;;;23.00;73.60;;;;;;5099441;28;20444;-87
2023/05/30 11:29:37;;;;;;;2.13;1.80;;;23.00;74.40;;;;;;5099100;28;20189;-86
2023/05/30 11:32:08;;;;;;;1.83;1.20;;;23.00;73.70;;;;;;5097605;28;20292;-86
2023/05/30 11:34:35;;;;;;;1.47;1.37;;;23.00;74.70;;;;;;5096136;28;20471;-88
2023/05/30 11:37:03;;;;;;;3.03;1.40;;;23.00;76.20;;;;;;5096719;28;20209;-86
2023/05/30 11:39:32;;;;;;;1.57;1.47;;;23.20;74.10;;;;;;5097020;28;20451;-87
2023/05/30 11:42:01;;;;;;;2.70;1.27;;;23.30;74.20;;;;;;5097828;28;20204;-87
2023/05/30 11:44:29;;;;;;;2.10;1.33;;;23.30;73.50;;;;;;5097226;28;20304;-86
2023/05/30 11:47:04;;;;;;;1.87;1.40;;;23.20;73.30;;;;;;5095992;28;20209;-85
2023/05/30 11:49:31;;;;;;;5.80;2.03;;;23.00;73.50;;;;;;5096635;28;20864;-85
2023/05/30 11:51:59;;;;;;;1.70;1.10;;;23.00;73.50;;;;;;5096236;28;20215;-87
2023/05/30 11:54:26;;;;;;;2.13;1.40;;;23.10;72.10;;;;;;5096358;28;20509;-86
2023/05/30 11:56:55;;;;;;;2.40;1.47;;;23.20;71.00;;;;;;5097663;28;20801;-85
2023/05/30 11:59:24;;;;;;;1.73;1.10;;;23.20;70.60;;;;;;5095836;28;20447;-86
2023/05/30 12:01:57;;;;;;;4.80;1.17;;;23.20;71.30;;;;;;5096672;28;20206;-87
2023/05/30 12:04:25;;;;;;;2.17;1.97;;;23.20;71.40;;;;;;5097120;28;20222;-86
2023/05/30 12:06:52;;;;;;;2.30;1.53;;;23.20;70.50;;;;;;5096006;28;20197;-85
2023/05/30 12:09:21;;;;;;;9.33;2.00;;;23.20;69.80;;;;;;5096163;28;20206;-87
2023/05/30 12:12:06;;;;;;;1.17;1.17;;;23.20;70.10;;;;;;5096075;28;20229;-86
2023/05/30 12:14:40;;;;;;;1.87;1.40;;;23.20;67.80;;;;;;5098658;28;20232;-88
2023/05/30 12:17:13;;;;;;;2.17;1.20;;;23.00;68.60;;;;;;5098319;28;20458;-87
2023/05/30 12:19:42;;;;;;;2.10;1.77;;;23.00;70.40;;;;;;5096762;28;20436;-88
2023/05/30 12:22:10;;;;;;;1.73;1.30;;;22.90;70.10;;;;;;5097973;28;20924;-88
2023/05/30 12:24:37;;;;;;;1.20;1.20;;;22.90;69.60;;;;;;5098783;28;20459;-88
2023/05/30 12:27:07;;;;;;;1.20;1.10;;;22.90;68.20;;;;;;5096415;28;20297;-88
2023/05/30 12:29:34;;;;;;;2.10;1.20;;;22.90;69.30;;;;;;5095649;28;20459;-88
2023/05/30 12:32:02;;;;;;;4.03;1.57;;;23.00;70.90;;;;;;5097204;28;20442;-89
2023/05/30 12:34:46;;;;;;;2.77;1.43;;;23.00;68.60;;;;;;5096990;28;20221;-88
2023/05/30 12:37:14;;;;;;;1.20;1.10;;;23.00;69.30;;;;;;5096399;28;20454;-88
2023/05/30 12:39:46;;;;;;;1.40;1.30;;;23.00;68.90;;;;;;5096507;28;20228;-88
2023/05/30 12:42:13;;;;;;;1.60;1.17;;;23.00;67.90;;;;;;5097985;28;20505;-88
2023/05/30 12:44:49;;;;;;;1.60;1.00;;;22.90;68.30;;;;;;5097198;28;20470;-86
2023/05/30 12:47:16;;;;;;;2.77;1.33;;;22.90;68.00;;;;;;5097972;28;20431;-83
2023/05/30 12:49:45;;;;;;;1.53;1.43;;;22.80;66.90;;;;;;5095818;28;20447;-87
2023/05/30 12:52:12;;;;;;;2.17;1.47;;;22.80;68.70;;;;;;5096935;28;20554;-88
2023/05/30 12:54:41;;;;;;;5.40;1.97;;;22.80;70.40;;;;;;5095999;28;20982;-88
2023/05/30 12:57:08;;;;;;;2.17;1.17;;;22.80;70.30;;;;;;5097066;28;20812;-87